createdAt,value
2023-02-20T00:00:08.526Z,2.20
2023-02-20T00:05:14.479Z,2.38
2023-02-20T00:10:34.432Z,2.20
2023-02-20T00:15:37.963Z,2.38
2023-02-20T00:20:41.579Z,2.17
2023-02-20T00:25:46.515Z,2.20
2023-02-20T00:30:50.189Z,2.55
2023-02-20T00:35:53.671Z,2.42
2023-02-20T00:40:58.409Z,2.30
2023-02-20T00:46:01.928Z,2.40
2023-02-20T00:51:05.926Z,2.50
2023-02-20T00:56:11.340Z,2.40
2023-02-20T01:01:17.102Z,2.33
2023-02-20T01:06:21.020Z,2.13
2023-02-20T01:11:25.840Z,2.38
2023-02-20T01:16:29.639Z,2.50
2023-02-20T01:21:33.440Z,2.50
2023-02-20T01:26:38.474Z,2.58
2023-02-20T01:31:42.254Z,2.38
2023-02-20T01:36:51.316Z,2.33
2023-02-20T01:42:00.636Z,2.30
2023-02-20T01:47:08.585Z,2.40
2023-02-20T01:52:18.694Z,2.50
2023-02-20T01:57:27.446Z,2.58
2023-02-20T02:02:35.023Z,2.25
2023-02-20T02:07:38.617Z,2.58
2023-02-20T02:12:45.196Z,2.33
2023-02-20T02:18:21.506Z,2.30
2023-02-20T02:24:47.586Z,2.10
2023-02-20T03:06:54.316Z,2.20
2023-02-20T03:12:00.716Z,2.40
2023-02-20T03:17:14.912Z,2.00
2023-02-20T03:22:23.561Z,2.45
2023-02-20T03:27:38.890Z,2.55
2023-02-20T03:38:28.345Z,2.30
2023-02-20T03:43:35.613Z,2.10
2023-02-20T03:48:44.012Z,2.20
2023-02-20T03:53:49.330Z,2.13
2023-02-20T03:58:59.950Z,1.88
2023-02-20T04:04:07.119Z,2.20
2023-02-20T04:09:17.921Z,2.30
2023-02-20T04:14:24.063Z,2.15
2023-02-20T04:19:31.302Z,2.10
2023-02-20T04:24:43.632Z,1.80
2023-02-20T04:29:48.625Z,1.70
2023-02-20T04:34:52.117Z,1.80
2023-02-20T04:39:57.350Z,2.03
2023-02-20T04:45:01.078Z,1.77
2023-02-20T04:50:07.627Z,1.92
2023-02-20T04:55:12.553Z,2.08
2023-02-20T05:00:19.325Z,1.70
2023-02-20T05:05:26.727Z,2.00
2023-02-20T05:10:34.298Z,1.80
2023-02-20T05:15:37.700Z,1.90
2023-02-20T05:21:00.840Z,1.80
2023-02-20T05:26:10.526Z,1.83
2023-02-20T05:31:17.421Z,1.73
2023-02-20T05:36:21.231Z,1.75
2023-02-20T05:41:26.294Z,1.65
2023-02-20T05:46:30.253Z,1.90
2023-02-20T05:51:34.383Z,1.70
2023-02-20T05:56:43.008Z,1.60
2023-02-20T06:01:46.841Z,1.73
2023-02-20T06:06:50.222Z,1.60
2023-02-20T06:11:57.311Z,1.70
2023-02-20T06:17:00.677Z,1.80
2023-02-20T06:22:04.215Z,1.40
2023-02-20T06:27:09.295Z,1.60
2023-02-20T06:32:12.712Z,1.70
2023-02-20T06:37:16.117Z,1.42
2023-02-20T06:42:20.872Z,1.50
2023-02-20T06:47:24.285Z,1.60
2023-02-20T06:52:27.704Z,1.45
2023-02-20T06:57:33.873Z,1.40
2023-02-20T07:02:37.342Z,1.50
2023-02-20T07:07:40.759Z,1.50
2023-02-20T07:12:45.534Z,1.38
2023-02-20T07:17:48.936Z,1.33
2023-02-20T07:22:53.941Z,1.40
2023-02-20T07:27:58.707Z,1.33
2023-02-20T07:33:02.533Z,1.50
2023-02-20T07:38:05.988Z,1.45
2023-02-20T07:43:11.054Z,1.45
2023-02-20T07:48:14.600Z,1.50
2023-02-20T07:53:20.900Z,1.40
2023-02-20T07:58:26.155Z,1.50
2023-02-20T08:03:29.547Z,1.40
2023-02-20T08:08:32.996Z,1.33
2023-02-20T08:13:37.880Z,1.60
2023-02-20T08:18:41.399Z,1.55
2023-02-20T08:23:44.883Z,1.38
2023-02-20T08:28:51.244Z,1.40
2023-02-20T08:33:54.681Z,1.55
2023-02-20T08:39:00.101Z,1.60
2023-02-20T08:44:05.587Z,1.50
2023-02-20T08:49:09.132Z,1.35
2023-02-20T08:54:12.817Z,1.50
2023-02-20T08:59:17.575Z,1.38
2023-02-20T09:04:22.133Z,1.40
2023-02-20T09:09:25.531Z,1.48
2023-02-20T09:14:31.817Z,1.50
2023-02-20T09:19:35.495Z,1.40
2023-02-20T09:24:38.919Z,1.50
2023-02-20T09:29:44.356Z,1.40
2023-02-20T09:34:47.795Z,1.30
2023-02-20T09:39:51.469Z,1.35
2023-02-20T09:45:08.329Z,1.40
2023-02-20T09:50:20.128Z,1.30
2023-02-20T09:55:25.283Z,1.30
2023-02-20T10:00:34.693Z,1.55
2023-02-20T10:05:39.059Z,1.50
2023-02-20T10:10:42.776Z,1.33
2023-02-20T10:15:59.557Z,1.60
2023-02-20T10:21:13.725Z,1.50
2023-02-20T10:26:23.340Z,1.15
2023-02-20T10:31:37.324Z,1.40
2023-02-20T10:36:45.945Z,1.40
2023-02-20T10:41:56.736Z,1.38
2023-02-20T10:47:08.582Z,1.30
2023-02-20T10:52:31.699Z,1.35
2023-02-20T10:57:43.244Z,1.30
2023-02-20T11:02:57.608Z,1.20
2023-02-20T11:08:00.993Z,1.30
2023-02-20T11:13:04.453Z,1.40
2023-02-20T11:18:28.168Z,1.40
2023-02-20T11:23:41.213Z,1.30
2023-02-20T11:28:44.946Z,1.20
2023-02-20T11:33:50.707Z,1.40
2023-02-20T11:39:00.786Z,1.10
2023-02-20T11:44:26.561Z,1.40
2023-02-20T11:49:31.613Z,1.30
2023-02-20T11:54:35.086Z,1.40
2023-02-20T11:59:41.612Z,1.30
2023-02-20T12:05:09.983Z,1.40
2023-02-20T12:10:40.436Z,1.50
2023-02-20T12:15:47.149Z,1.25
2023-02-20T12:21:02.892Z,1.00
2023-02-20T12:26:27.223Z,1.23
2023-02-20T12:31:49.642Z,1.30
2023-02-20T12:37:07.286Z,1.10
2023-02-20T12:42:27.276Z,1.30
2023-02-20T12:47:35.107Z,1.25
2023-02-20T12:53:06.428Z,1.30
2023-02-20T12:58:28.617Z,1.30
2023-02-20T13:03:48.747Z,1.27
2023-02-20T13:09:06.495Z,1.33
2023-02-20T13:14:30.346Z,1.17
2023-02-20T13:19:41.966Z,1.15
2023-02-20T13:24:46.724Z,1.40
2023-02-20T13:30:00.488Z,1.33
2023-02-20T13:35:46.549Z,1.10
2023-02-20T13:46:24.958Z,1.05
2023-02-20T13:51:38.123Z,1.30
2023-02-20T13:56:52.471Z,1.23
2023-02-20T14:02:05.544Z,1.10
2023-02-20T14:07:08.951Z,1.23
2023-02-20T14:12:15.443Z,1.00
2023-02-20T14:17:23.509Z,1.08
2023-02-20T14:27:35.092Z,1.23
2023-02-20T14:32:44.291Z,1.10
2023-02-20T14:37:55.649Z,1.20
2023-02-20T14:43:04.214Z,1.20
2023-02-20T14:48:25.680Z,1.10
2023-02-20T14:53:29.094Z,1.13
2023-02-20T14:58:39.210Z,1.30
2023-02-20T15:03:44.927Z,1.20
2023-02-20T15:08:48.415Z,1.10
2023-02-20T15:13:52.021Z,1.13
2023-02-20T15:18:57.144Z,1.20
2023-02-20T15:24:29.704Z,1.10
2023-02-20T15:29:33.213Z,1.20
2023-02-20T15:34:39.490Z,1.20
2023-02-20T15:39:43.029Z,1.10
2023-02-20T15:44:46.635Z,1.25
2023-02-20T15:49:52.436Z,1.30
2023-02-20T15:54:57.480Z,1.05
2023-02-20T16:00:00.911Z,1.10
2023-02-20T16:05:06.498Z,1.10
2023-02-20T16:10:10.649Z,1.25
2023-02-20T16:15:18.552Z,1.10
2023-02-20T16:20:26.547Z,1.10
2023-02-20T16:25:29.939Z,1.20
2023-02-20T16:30:38.782Z,1.40
2023-02-20T16:35:44.364Z,1.10
2023-02-20T16:40:51.035Z,1.15
2023-02-20T16:45:54.477Z,1.20
2023-02-20T16:50:59.394Z,1.30
2023-02-20T16:56:02.945Z,1.15
2023-02-20T17:01:07.132Z,1.30
2023-02-20T17:06:14.417Z,1.20
2023-02-20T17:11:17.870Z,1.40
2023-02-20T17:16:30.632Z,1.13
2023-02-20T17:21:36.647Z,1.23
2023-02-20T17:26:40.044Z,1.20
2023-02-20T17:31:43.688Z,1.38
2023-02-20T17:36:49.498Z,1.38
2023-02-20T17:41:55.672Z,1.30
2023-02-20T17:47:01.239Z,1.40
2023-02-20T17:52:06.559Z,1.27
2023-02-20T17:57:09.965Z,1.40
2023-02-20T18:02:15.628Z,1.30
2023-02-20T18:07:20.590Z,1.40
2023-02-20T18:12:24.069Z,1.42
2023-02-20T18:17:27.471Z,1.52
2023-02-20T18:22:32.221Z,1.50
2023-02-20T18:27:35.625Z,1.67
2023-02-20T18:32:39.130Z,1.60
2023-02-20T18:37:44.032Z,1.85
2023-02-20T18:42:47.815Z,1.70
2023-02-20T18:47:52.751Z,2.00
2023-02-20T18:52:57.600Z,1.75
2023-02-20T18:58:01.201Z,2.03
2023-02-20T19:03:04.782Z,2.20
2023-02-20T19:08:09.550Z,2.20
2023-02-20T19:13:13.067Z,2.33
2023-02-20T19:18:16.456Z,2.20
2023-02-20T19:23:21.206Z,2.30
2023-02-20T19:28:24.624Z,2.25
2023-02-20T19:33:28.216Z,2.10
2023-02-20T19:38:34.707Z,2.40
2023-02-20T19:43:38.099Z,2.42
2023-02-20T19:48:41.526Z,2.50
2023-02-20T19:53:46.555Z,2.35
2023-02-20T19:58:49.925Z,2.60
2023-02-20T20:03:53.354Z,2.65
2023-02-20T20:09:12.565Z,2.58
2023-02-20T20:14:20.274Z,2.40
2023-02-20T20:19:23.751Z,2.80
2023-02-20T20:24:28.598Z,2.50
2023-02-20T20:29:32.082Z,2.80
2023-02-20T20:34:35.488Z,2.58
2023-02-20T20:39:40.218Z,2.72
2023-02-20T20:44:43.619Z,3.00
2023-02-20T20:49:47.289Z,2.83
2023-02-20T20:54:53.261Z,2.70
2023-02-20T20:59:59.044Z,2.70
2023-02-20T21:05:11.308Z,2.83
2023-02-20T21:10:17.153Z,2.72
2023-02-20T21:15:23.204Z,3.03
2023-02-20T21:20:30.731Z,2.85
2023-02-20T21:25:35.520Z,2.60
2023-02-20T21:30:39.057Z,2.97
2023-02-20T21:35:42.823Z,2.83
2023-02-20T21:40:47.682Z,2.88
2023-02-20T21:45:51.095Z,2.90
2023-02-20T21:50:54.480Z,3.35
2023-02-20T21:55:59.475Z,2.88
2023-02-20T22:01:01.762Z,2.95
2023-02-20T22:06:04.471Z,2.60
2023-02-20T22:11:26.968Z,2.67
2023-02-20T22:16:48.102Z,2.67
2023-02-20T22:22:09.002Z,2.70
2023-02-20T22:27:31.189Z,2.90
2023-02-20T22:32:52.121Z,3.00
2023-02-20T22:38:13.118Z,2.90
2023-02-20T22:43:35.845Z,2.42
2023-02-20T22:48:56.692Z,2.72
2023-02-20T22:54:17.773Z,3.22
2023-02-20T22:59:40.248Z,2.72
2023-02-20T23:05:01.209Z,2.83
2023-02-20T23:10:22.394Z,2.80
2023-02-20T23:15:44.567Z,3.00
2023-02-20T23:21:05.397Z,2.97
2023-02-20T23:26:26.546Z,2.90
2023-02-20T23:31:55.673Z,2.78
2023-02-20T23:37:16.809Z,2.95
2023-02-20T23:42:38.724Z,3.10
2023-02-20T23:48:00.990Z,2.88
2023-02-20T23:53:21.934Z,3.10
2023-02-20T23:58:42.865Z,3.00
